sensor_id;sensor_type;location;lat;lon;timestamp;temperature;humidity
7290;DHT22;63176;52.678;13.250;2023-09-19T00:01:42;18.40;99.90
7290;DHT22;63176;52.678;13.250;2023-09-19T00:04:11;18.30;99.90
7290;DHT22;63176;52.678;13.250;2023-09-19T00:06:38;18.30;99.90
7290;DHT22;63176;52.678;13.250;2023-09-19T00:09:04;18.30;99.90
7290;DHT22;63176;52.678;13.250;2023-09-19T00:11:30;18.30;99.90
7290;DHT22;63176;52.678;13.250;2023-09-19T00:13:57;18.40;99.90
7290;DHT22;63176;52.678;13.250;2023-09-19T00:16:25;18.40;99.90
7290;DHT22;63176;52.678;13.250;2023-09-19T00:18:51;18.40;99.90
7290;DHT22;63176;52.678;13.250;2023-09-19T00:21:18;18.40;99.90
7290;DHT22;63176;52.678;13.250;2023-09-19T00:23:44;18.40;99.90
7290;DHT22;63176;52.678;13.250;2023-09-19T00:26:10;18.40;99.90
7290;DHT22;63176;52.678;13.250;2023-09-19T00:28:36;18.40;99.90
7290;DHT22;63176;52.678;13.250;2023-09-19T00:31:01;18.40;99.90
7290;DHT22;63176;52.678;13.250;2023-09-19T00:33:28;18.40;99.90
7290;DHT22;63176;52.678;13.250;2023-09-19T00:35:56;18.40;99.90
7290;DHT22;63176;52.678;13.250;2023-09-19T00:38:23;18.40;99.90
7290;DHT22;63176;52.678;13.250;2023-09-19T00:40:52;18.40;99.90
7290;DHT22;63176;52.678;13.250;2023-09-19T00:43:19;18.40;99.90
7290;DHT22;63176;52.678;13.250;2023-09-19T00:45:47;18.40;99.90
7290;DHT22;63176;52.678;13.250;2023-09-19T00:48:14;18.30;99.90
7290;DHT22;63176;52.678;13.250;2023-09-19T00:50:42;18.30;99.90
7290;DHT22;63176;52.678;13.250;2023-09-19T00:53:09;18.30;99.90
7290;DHT22;63176;52.678;13.250;2023-09-19T00:55:39;18.30;99.90
7290;DHT22;63176;52.678;13.250;2023-09-19T00:58:05;18.30;99.90
7290;DHT22;63176;52.678;13.250;2023-09-19T01:00:33;18.30;99.90
7290;DHT22;63176;52.678;13.250;2023-09-19T01:03:00;18.30;99.90
7290;DHT22;63176;52.678;13.250;2023-09-19T01:05:29;18.30;99.90
7290;DHT22;63176;52.678;13.250;2023-09-19T01:07:57;18.30;99.90
7290;DHT22;63176;52.678;13.250;2023-09-19T01:10:24;18.20;99.90
7290;DHT22;63176;52.678;13.250;2023-09-19T01:26:07;18.20;99.90
7290;DHT22;63176;52.678;13.250;2023-09-19T01:31:20;18.30;99.90
7290;DHT22;63176;52.678;13.250;2023-09-19T01:34:00;18.30;99.90
7290;DHT22;63176;52.678;13.250;2023-09-19T01:36:28;18.30;99.90
7290;DHT22;63176;52.678;13.250;2023-09-19T01:38:54;18.30;99.90
7290;DHT22;63176;52.678;13.250;2023-09-19T01:41:28;18.30;99.90
7290;DHT22;63176;52.678;13.250;2023-09-19T01:43:55;18.30;99.90
7290;DHT22;63176;52.678;13.250;2023-09-19T01:46:25;18.20;99.90
7290;DHT22;63176;52.678;13.250;2023-09-19T01:49:27;18.20;99.90
7290;DHT22;63176;52.678;13.250;2023-09-19T01:54:26;18.20;99.90
7290;DHT22;63176;52.678;13.250;2023-09-19T01:57:16;18.20;99.90
7290;DHT22;63176;52.678;13.250;2023-09-19T01:59:50;18.20;99.90
7290;DHT22;63176;52.678;13.250;2023-09-19T02:02:18;18.10;99.90
7290;DHT22;63176;52.678;13.250;2023-09-19T02:04:47;18.10;99.90
7290;DHT22;63176;52.678;13.250;2023-09-19T02:07:13;18.00;99.90
7290;DHT22;63176;52.678;13.250;2023-09-19T02:09:42;18.00;99.90
7290;DHT22;63176;52.678;13.250;2023-09-19T02:12:09;18.00;99.90
7290;DHT22;63176;52.678;13.250;2023-09-19T02:14:35;18.00;99.90
7290;DHT22;63176;52.678;13.250;2023-09-19T02:17:04;18.00;99.90
7290;DHT22;63176;52.678;13.250;2023-09-19T02:19:35;17.90;99.90
7290;DHT22;63176;52.678;13.250;2023-09-19T02:22:01;17.90;99.90
7290;DHT22;63176;52.678;13.250;2023-09-19T02:24:33;17.90;99.90
7290;DHT22;63176;52.678;13.250;2023-09-19T02:26:59;17.90;99.90
7290;DHT22;63176;52.678;13.250;2023-09-19T02:29:29;17.80;99.90
7290;DHT22;63176;52.678;13.250;2023-09-19T02:31:55;17.80;99.90
7290;DHT22;63176;52.678;13.250;2023-09-19T02:34:22;17.80;99.90
7290;DHT22;63176;52.678;13.250;2023-09-19T02:36:48;17.80;99.90
7290;DHT22;63176;52.678;13.250;2023-09-19T02:39:14;17.70;99.90
7290;DHT22;63176;52.678;13.250;2023-09-19T02:41:39;17.70;99.90
7290;DHT22;63176;52.678;13.250;2023-09-19T02:44:07;17.70;99.90
7290;DHT22;63176;52.678;13.250;2023-09-19T02:46:34;17.70;99.90
7290;DHT22;63176;52.678;13.250;2023-09-19T02:49:01;17.70;99.90
7290;DHT22;63176;52.678;13.250;2023-09-19T02:51:28;17.60;99.90
7290;DHT22;63176;52.678;13.250;2023-09-19T02:53:54;17.60;99.90
7290;DHT22;63176;52.678;13.250;2023-09-19T02:56:20;17.60;99.90
7290;DHT22;63176;52.678;13.250;2023-09-19T02:58:45;17.50;99.90
7290;DHT22;63176;52.678;13.250;2023-09-19T03:01:11;17.50;99.90
7290;DHT22;63176;52.678;13.250;2023-09-19T03:03:37;17.50;99.90
7290;DHT22;63176;52.678;13.250;2023-09-19T03:06:05;17.40;99.90
7290;DHT22;63176;52.678;13.250;2023-09-19T03:08:31;17.40;99.90
7290;DHT22;63176;52.678;13.250;2023-09-19T03:11:03;17.30;99.90
7290;DHT22;63176;52.678;13.250;2023-09-19T03:13:31;17.30;99.90
7290;DHT22;63176;52.678;13.250;2023-09-19T03:15:57;17.20;99.90
7290;DHT22;63176;52.678;13.250;2023-09-19T03:18:24;17.20;99.90
7290;DHT22;63176;52.678;13.250;2023-09-19T03:20:55;17.20;99.90
7290;DHT22;63176;52.678;13.250;2023-09-19T03:23:22;17.10;99.90
7290;DHT22;63176;52.678;13.250;2023-09-19T03:25:48;17.10;99.90
7290;DHT22;63176;52.678;13.250;2023-09-19T03:28:14;17.00;99.90
7290;DHT22;63176;52.678;13.250;2023-09-19T03:30:41;17.00;99.90
7290;DHT22;63176;52.678;13.250;2023-09-19T03:33:07;17.00;99.90
7290;DHT22;63176;52.678;13.250;2023-09-19T03:35:33;16.90;99.90
7290;DHT22;63176;52.678;13.250;2023-09-19T03:38:00;16.90;99.90
7290;DHT22;63176;52.678;13.250;2023-09-19T03:40:25;16.90;99.90
7290;DHT22;63176;52.678;13.250;2023-09-19T03:42:51;17.00;99.90
7290;DHT22;63176;52.678;13.250;2023-09-19T03:45:17;17.10;99.90
7290;DHT22;63176;52.678;13.250;2023-09-19T03:47:43;17.10;99.90
7290;DHT22;63176;52.678;13.250;2023-09-19T03:50:09;17.10;99.90
7290;DHT22;63176;52.678;13.250;2023-09-19T03:52:40;17.20;99.90
7290;DHT22;63176;52.678;13.250;2023-09-19T03:55:06;17.20;99.90
7290;DHT22;63176;52.678;13.250;2023-09-19T03:57:32;17.20;99.90
7290;DHT22;63176;52.678;13.250;2023-09-19T03:59:58;17.20;99.90
7290;DHT22;63176;52.678;13.250;2023-09-19T04:02:23;17.20;99.90
7290;DHT22;63176;52.678;13.250;2023-09-19T04:04:51;17.20;99.90
7290;DHT22;63176;52.678;13.250;2023-09-19T04:07:17;17.20;99.90
7290;DHT22;63176;52.678;13.250;2023-09-19T04:09:44;17.20;99.90
7290;DHT22;63176;52.678;13.250;2023-09-19T04:12:11;17.20;99.90
7290;DHT22;63176;52.678;13.250;2023-09-19T04:14:37;17.10;99.90
7290;DHT22;63176;52.678;13.250;2023-09-19T04:17:03;17.10;99.90
7290;DHT22;63176;52.678;13.250;2023-09-19T04:19:30;17.10;99.90
7290;DHT22;63176;52.678;13.250;2023-09-19T04:21:56;17.10;99.90
7290;DHT22;63176;52.678;13.250;2023-09-19T04:24:22;17.00;99.90
7290;DHT22;63176;52.678;13.250;2023-09-19T04:26:47;17.00;99.90
7290;DHT22;63176;52.678;13.250;2023-09-19T04:29:13;17.00;99.90
7290;DHT22;63176;52.678;13.250;2023-09-19T04:31:39;17.00;99.90
7290;DHT22;63176;52.678;13.250;2023-09-19T04:34:08;16.90;99.90
7290;DHT22;63176;52.678;13.250;2023-09-19T04:36:33;17.00;99.90
7290;DHT22;63176;52.678;13.250;2023-09-19T04:38:59;16.90;99.90
7290;DHT22;63176;52.678;13.250;2023-09-19T04:41:24;16.90;99.90
7290;DHT22;63176;52.678;13.250;2023-09-19T04:43:50;16.90;99.90
7290;DHT22;63176;52.678;13.250;2023-09-19T04:46:16;16.90;99.90
7290;DHT22;63176;52.678;13.250;2023-09-19T04:48:43;16.90;99.90
7290;DHT22;63176;52.678;13.250;2023-09-19T04:51:09;16.90;99.90
7290;DHT22;63176;52.678;13.250;2023-09-19T04:53:36;16.90;99.90
7290;DHT22;63176;52.678;13.250;2023-09-19T04:56:02;16.90;99.90
7290;DHT22;63176;52.678;13.250;2023-09-19T04:58:29;16.90;99.90
7290;DHT22;63176;52.678;13.250;2023-09-19T05:00:55;16.90;99.90
7290;DHT22;63176;52.678;13.250;2023-09-19T05:03:21;16.90;99.90
7290;DHT22;63176;52.678;13.250;2023-09-19T05:05:47;16.90;99.90
7290;DHT22;63176;52.678;13.250;2023-09-19T05:08:14;16.90;99.90
7290;DHT22;63176;52.678;13.250;2023-09-19T05:10:40;16.90;99.90
7290;DHT22;63176;52.678;13.250;2023-09-19T05:13:06;16.90;99.90
7290;DHT22;63176;52.678;13.250;2023-09-19T05:15:35;16.90;99.90
7290;DHT22;63176;52.678;13.250;2023-09-19T05:18:01;16.90;99.90
7290;DHT22;63176;52.678;13.250;2023-09-19T05:20:27;16.90;99.90
7290;DHT22;63176;52.678;13.250;2023-09-19T05:23:05;16.90;99.90
7290;DHT22;63176;52.678;13.250;2023-09-19T05:25:38;16.90;99.90
7290;DHT22;63176;52.678;13.250;2023-09-19T05:28:05;16.90;99.90
7290;DHT22;63176;52.678;13.250;2023-09-19T05:30:32;16.80;99.90
7290;DHT22;63176;52.678;13.250;2023-09-19T05:32:57;16.90;99.90
7290;DHT22;63176;52.678;13.250;2023-09-19T05:35:24;16.90;99.90
7290;DHT22;63176;52.678;13.250;2023-09-19T05:37:54;16.90;99.90
7290;DHT22;63176;52.678;13.250;2023-09-19T05:40:20;16.90;99.90
7290;DHT22;63176;52.678;13.250;2023-09-19T05:42:47;16.90;99.90
7290;DHT22;63176;52.678;13.250;2023-09-19T05:45:13;16.90;99.90
7290;DHT22;63176;52.678;13.250;2023-09-19T05:47:43;16.90;99.90
7290;DHT22;63176;52.678;13.250;2023-09-19T05:50:11;16.80;99.90
7290;DHT22;63176;52.678;13.250;2023-09-19T05:52:37;16.80;99.90
7290;DHT22;63176;52.678;13.250;2023-09-19T05:55:06;16.80;99.90
7290;DHT22;63176;52.678;13.250;2023-09-19T05:57:33;16.80;99.90
7290;DHT22;63176;52.678;13.250;2023-09-19T05:59:59;16.90;99.90
7290;DHT22;63176;52.678;13.250;2023-09-19T06:02:25;16.90;99.90
7290;DHT22;63176;52.678;13.250;2023-09-19T06:04:55;16.90;99.90
7290;DHT22;63176;52.678;13.250;2023-09-19T06:07:22;16.90;99.90
7290;DHT22;63176;52.678;13.250;2023-09-19T06:09:48;16.90;99.90
7290;DHT22;63176;52.678;13.250;2023-09-19T06:12:14;17.00;99.90
7290;DHT22;63176;52.678;13.250;2023-09-19T06:14:41;17.00;99.90
7290;DHT22;63176;52.678;13.250;2023-09-19T06:17:06;17.10;99.90
7290;DHT22;63176;52.678;13.250;2023-09-19T06:19:32;17.20;99.90
7290;DHT22;63176;52.678;13.250;2023-09-19T06:21:58;17.20;99.90
7290;DHT22;63176;52.678;13.250;2023-09-19T06:24:25;17.20;99.90
7290;DHT22;63176;52.678;13.250;2023-09-19T06:26:51;17.30;99.90
7290;DHT22;63176;52.678;13.250;2023-09-19T06:29:18;17.40;99.90
7290;DHT22;63176;52.678;13.250;2023-09-19T06:31:46;17.40;99.90
7290;DHT22;63176;52.678;13.250;2023-09-19T06:34:12;17.40;99.90
7290;DHT22;63176;52.678;13.250;2023-09-19T06:36:40;17.50;99.90
7290;DHT22;63176;52.678;13.250;2023-09-19T06:39:07;17.60;99.90
7290;DHT22;63176;52.678;13.250;2023-09-19T06:41:37;17.70;99.90
7290;DHT22;63176;52.678;13.250;2023-09-19T06:44:04;17.80;99.90
7290;DHT22;63176;52.678;13.250;2023-09-19T06:46:30;17.90;99.90
7290;DHT22;63176;52.678;13.250;2023-09-19T06:49:01;18.00;99.90
7290;DHT22;63176;52.678;13.250;2023-09-19T06:51:40;18.10;99.90
7290;DHT22;63176;52.678;13.250;2023-09-19T06:54:07;18.10;99.90
7290;DHT22;63176;52.678;13.250;2023-09-19T06:56:32;18.20;99.90
7290;DHT22;63176;52.678;13.250;2023-09-19T06:58:58;18.30;99.90
7290;DHT22;63176;52.678;13.250;2023-09-19T07:01:24;18.40;99.90
7290;DHT22;63176;52.678;13.250;2023-09-19T07:03:50;18.50;99.90
7290;DHT22;63176;52.678;13.250;2023-09-19T07:06:16;18.60;99.90
7290;DHT22;63176;52.678;13.250;2023-09-19T07:08:43;18.60;99.90
7290;DHT22;63176;52.678;13.250;2023-09-19T07:11:08;18.60;99.90
7290;DHT22;63176;52.678;13.250;2023-09-19T07:13:34;18.50;99.90
7290;DHT22;63176;52.678;13.250;2023-09-19T07:16:01;18.50;99.90
7290;DHT22;63176;52.678;13.250;2023-09-19T07:18:26;18.50;99.90
7290;DHT22;63176;52.678;13.250;2023-09-19T07:20:57;18.40;99.90
7290;DHT22;63176;52.678;13.250;2023-09-19T07:23:27;18.40;99.90
7290;DHT22;63176;52.678;13.250;2023-09-19T07:25:56;18.40;99.90
7290;DHT22;63176;52.678;13.250;2023-09-19T07:28:22;18.30;99.90
7290;DHT22;63176;52.678;13.250;2023-09-19T07:30:48;18.30;99.90
7290;DHT22;63176;52.678;13.250;2023-09-19T07:33:13;18.30;99.90
7290;DHT22;63176;52.678;13.250;2023-09-19T07:35:40;18.30;99.90
7290;DHT22;63176;52.678;13.250;2023-09-19T07:38:06;18.30;99.90
7290;DHT22;63176;52.678;13.250;2023-09-19T07:40:33;18.40;99.90
7290;DHT22;63176;52.678;13.250;2023-09-19T07:42:58;18.40;99.90
7290;DHT22;63176;52.678;13.250;2023-09-19T07:45:31;18.40;99.90
7290;DHT22;63176;52.678;13.250;2023-09-19T07:47:56;18.40;99.90
7290;DHT22;63176;52.678;13.250;2023-09-19T07:50:23;18.50;99.90
7290;DHT22;63176;52.678;13.250;2023-09-19T07:52:49;18.50;99.90
7290;DHT22;63176;52.678;13.250;2023-09-19T07:55:19;18.50;99.90
7290;DHT22;63176;52.678;13.250;2023-09-19T07:57:48;18.60;99.90
7290;DHT22;63176;52.678;13.250;2023-09-19T08:00:14;18.50;99.90
7290;DHT22;63176;52.678;13.250;2023-09-19T08:02:41;18.50;99.90
7290;DHT22;63176;52.678;13.250;2023-09-19T08:05:08;18.40;99.90
7290;DHT22;63176;52.678;13.250;2023-09-19T08:07:40;18.30;99.90
7290;DHT22;63176;52.678;13.250;2023-09-19T08:10:07;18.40;99.90
7290;DHT22;63176;52.678;13.250;2023-09-19T08:12:36;18.30;99.90
7290;DHT22;63176;52.678;13.250;2023-09-19T08:15:05;18.20;99.90
7290;DHT22;63176;52.678;13.250;2023-09-19T08:17:35;18.10;99.90
7290;DHT22;63176;52.678;13.250;2023-09-19T08:20:01;18.10;99.90
7290;DHT22;63176;52.678;13.250;2023-09-19T08:22:28;18.10;99.90
7290;DHT22;63176;52.678;13.250;2023-09-19T08:24:54;18.10;99.90
7290;DHT22;63176;52.678;13.250;2023-09-19T08:27:19;18.10;99.90
7290;DHT22;63176;52.678;13.250;2023-09-19T08:29:45;18.20;99.90
7290;DHT22;63176;52.678;13.250;2023-09-19T08:32:12;18.30;99.90
7290;DHT22;63176;52.678;13.250;2023-09-19T08:34:37;18.40;99.90
7290;DHT22;63176;52.678;13.250;2023-09-19T08:37:04;18.50;99.90
7290;DHT22;63176;52.678;13.250;2023-09-19T08:39:30;18.60;99.90
7290;DHT22;63176;52.678;13.250;2023-09-19T08:41:59;18.70;99.90
7290;DHT22;63176;52.678;13.250;2023-09-19T08:44:26;18.80;99.90
7290;DHT22;63176;52.678;13.250;2023-09-19T08:47:08;19.00;99.90
7290;DHT22;63176;52.678;13.250;2023-09-19T08:49:58;19.10;99.90
7290;DHT22;63176;52.678;13.250;2023-09-19T08:52:41;19.30;99.90
7290;DHT22;63176;52.678;13.250;2023-09-19T08:55:07;19.40;99.90
7290;DHT22;63176;52.678;13.250;2023-09-19T08:57:36;19.60;99.90
7290;DHT22;63176;52.678;13.250;2023-09-19T09:00:07;19.70;99.90
7290;DHT22;63176;52.678;13.250;2023-09-19T09:02:38;19.90;99.90
7290;DHT22;63176;52.678;13.250;2023-09-19T09:05:11;20.00;99.90
7290;DHT22;63176;52.678;13.250;2023-09-19T09:07:43;20.10;99.90
7290;DHT22;63176;52.678;13.250;2023-09-19T09:10:09;20.30;99.90
7290;DHT22;63176;52.678;13.250;2023-09-19T09:12:36;20.40;99.90
7290;DHT22;63176;52.678;13.250;2023-09-19T09:15:06;20.60;99.90
7290;DHT22;63176;52.678;13.250;2023-09-19T09:17:34;20.60;99.90
7290;DHT22;63176;52.678;13.250;2023-09-19T09:20:00;20.90;99.90
7290;DHT22;63176;52.678;13.250;2023-09-19T09:22:25;21.30;99.90
7290;DHT22;63176;52.678;13.250;2023-09-19T09:24:58;21.60;99.90
7290;DHT22;63176;52.678;13.250;2023-09-19T09:27:24;21.50;99.90
7290;DHT22;63176;52.678;13.250;2023-09-19T09:29:51;21.10;99.90
7290;DHT22;63176;52.678;13.250;2023-09-19T09:32:28;20.90;99.90
7290;DHT22;63176;52.678;13.250;2023-09-19T09:34:56;20.60;99.90
7290;DHT22;63176;52.678;13.250;2023-09-19T09:37:22;20.40;99.90
7290;DHT22;63176;52.678;13.250;2023-09-19T09:39:54;20.50;99.90
7290;DHT22;63176;52.678;13.250;2023-09-19T09:42:35;20.80;99.90
7290;DHT22;63176;52.678;13.250;2023-09-19T09:45:20;21.20;99.90
7290;DHT22;63176;52.678;13.250;2023-09-19T09:47:59;21.50;99.90
7290;DHT22;63176;52.678;13.250;2023-09-19T09:50:34;21.80;99.90
7290;DHT22;63176;52.678;13.250;2023-09-19T09:53:26;22.00;99.90
7290;DHT22;63176;52.678;13.250;2023-09-19T09:56:08;22.40;99.90
7290;DHT22;63176;52.678;13.250;2023-09-19T09:58:50;22.50;99.90
7290;DHT22;63176;52.678;13.250;2023-09-19T10:01:20;22.70;99.90
7290;DHT22;63176;52.678;13.250;2023-09-19T10:03:46;22.70;99.90
7290;DHT22;63176;52.678;13.250;2023-09-19T10:06:17;22.80;99.90
7290;DHT22;63176;52.678;13.250;2023-09-19T10:09:09;22.80;99.90
7290;DHT22;63176;52.678;13.250;2023-09-19T10:11:40;22.90;99.90
7290;DHT22;63176;52.678;13.250;2023-09-19T10:14:09;23.10;99.90
7290;DHT22;63176;52.678;13.250;2023-09-19T10:16:47;22.90;99.90
7290;DHT22;63176;52.678;13.250;2023-09-19T10:19:21;23.00;99.90
7290;DHT22;63176;52.678;13.250;2023-09-19T10:21:50;23.10;99.90
7290;DHT22;63176;52.678;13.250;2023-09-19T10:24:19;23.10;99.90
7290;DHT22;63176;52.678;13.250;2023-09-19T10:26:46;23.00;99.90
7290;DHT22;63176;52.678;13.250;2023-09-19T10:29:16;22.90;99.90
7290;DHT22;63176;52.678;13.250;2023-09-19T10:31:44;22.90;99.90
7290;DHT22;63176;52.678;13.250;2023-09-19T10:34:14;22.90;99.90
7290;DHT22;63176;52.678;13.250;2023-09-19T10:36:44;22.90;99.90
7290;DHT22;63176;52.678;13.250;2023-09-19T10:39:16;22.80;99.90
7290;DHT22;63176;52.678;13.250;2023-09-19T10:41:50;22.50;99.90
7290;DHT22;63176;52.678;13.250;2023-09-19T10:44:25;22.20;99.90
7290;DHT22;63176;52.678;13.250;2023-09-19T10:46:52;22.00;99.90
7290;DHT22;63176;52.678;13.250;2023-09-19T10:49:22;21.80;99.90
7290;DHT22;63176;52.678;13.250;2023-09-19T10:51:53;21.60;99.90
7290;DHT22;63176;52.678;13.250;2023-09-19T10:54:26;21.40;99.90
7290;DHT22;63176;52.678;13.250;2023-09-19T10:56:54;21.50;99.90
7290;DHT22;63176;52.678;13.250;2023-09-19T10:59:20;21.60;99.90
7290;DHT22;63176;52.678;13.250;2023-09-19T11:01:51;21.70;99.90
7290;DHT22;63176;52.678;13.250;2023-09-19T11:04:28;21.80;99.90
7290;DHT22;63176;52.678;13.250;2023-09-19T11:07:10;21.80;99.90
7290;DHT22;63176;52.678;13.250;2023-09-19T11:09:50;21.90;99.90
7290;DHT22;63176;52.678;13.250;2023-09-19T11:15:03;21.60;99.90
7290;DHT22;63176;52.678;13.250;2023-09-19T11:17:37;21.40;99.90
7290;DHT22;63176;52.678;13.250;2023-09-19T11:25:41;21.10;99.90
7290;DHT22;63176;52.678;13.250;2023-09-19T11:30:46;20.90;99.90
7290;DHT22;63176;52.678;13.250;2023-09-19T11:36:11;21.00;99.90
7290;DHT22;63176;52.678;13.250;2023-09-19T11:46:32;21.10;99.90
7290;DHT22;63176;52.678;13.250;2023-09-19T11:49:08;21.20;99.90
7290;DHT22;63176;52.678;13.250;2023-09-19T11:51:43;21.30;99.90
7290;DHT22;63176;52.678;13.250;2023-09-19T11:54:13;21.40;99.90
7290;DHT22;63176;52.678;13.250;2023-09-19T11:56:43;21.40;99.90
7290;DHT22;63176;52.678;13.250;2023-09-19T11:59:10;21.40;99.90
7290;DHT22;63176;52.678;13.250;2023-09-19T12:01:38;21.30;99.90
7290;DHT22;63176;52.678;13.250;2023-09-19T12:04:11;21.30;99.90
7290;DHT22;63176;52.678;13.250;2023-09-19T12:06:37;21.30;99.90
7290;DHT22;63176;52.678;13.250;2023-09-19T12:09:12;21.40;99.90
7290;DHT22;63176;52.678;13.250;2023-09-19T12:11:42;21.40;99.90
7290;DHT22;63176;52.678;13.250;2023-09-19T12:14:09;21.30;99.90
7290;DHT22;63176;52.678;13.250;2023-09-19T12:16:35;21.30;99.90
7290;DHT22;63176;52.678;13.250;2023-09-19T12:19:34;21.40;99.90
7290;DHT22;63176;52.678;13.250;2023-09-19T12:22:03;21.40;99.90
7290;DHT22;63176;52.678;13.250;2023-09-19T12:24:32;21.40;99.90
7290;DHT22;63176;52.678;13.250;2023-09-19T12:27:05;21.40;99.90
7290;DHT22;63176;52.678;13.250;2023-09-19T12:29:32;21.60;99.90
7290;DHT22;63176;52.678;13.250;2023-09-19T12:32:00;21.70;99.90
7290;DHT22;63176;52.678;13.250;2023-09-19T12:34:32;21.90;99.90
7290;DHT22;63176;52.678;13.250;2023-09-19T12:37:11;22.00;99.90
7290;DHT22;63176;52.678;13.250;2023-09-19T12:42:13;22.20;99.90
7290;DHT22;63176;52.678;13.250;2023-09-19T12:44:44;22.30;99.90
7290;DHT22;63176;52.678;13.250;2023-09-19T12:47:14;22.40;99.90
7290;DHT22;63176;52.678;13.250;2023-09-19T12:50:06;22.60;99.90
7290;DHT22;63176;52.678;13.250;2023-09-19T12:52:40;22.70;99.90
7290;DHT22;63176;52.678;13.250;2023-09-19T12:55:06;22.70;99.90
7290;DHT22;63176;52.678;13.250;2023-09-19T12:57:36;22.80;99.90
7290;DHT22;63176;52.678;13.250;2023-09-19T13:00:03;22.80;99.90
7290;DHT22;63176;52.678;13.250;2023-09-19T13:02:31;22.60;99.90
7290;DHT22;63176;52.678;13.250;2023-09-19T13:04:58;22.50;99.90
7290;DHT22;63176;52.678;13.250;2023-09-19T13:07:45;22.50;99.90
7290;DHT22;63176;52.678;13.250;2023-09-19T13:10:15;22.50;99.90
7290;DHT22;63176;52.678;13.250;2023-09-19T13:12:42;22.30;99.90
7290;DHT22;63176;52.678;13.250;2023-09-19T13:15:13;22.10;99.90
7290;DHT22;63176;52.678;13.250;2023-09-19T13:17:45;22.10;99.90
7290;DHT22;63176;52.678;13.250;2023-09-19T13:20:26;22.20;99.90
7290;DHT22;63176;52.678;13.250;2023-09-19T13:22:57;22.10;99.90
7290;DHT22;63176;52.678;13.250;2023-09-19T13:25:33;22.10;99.90
7290;DHT22;63176;52.678;13.250;2023-09-19T13:28:00;22.20;99.90
7290;DHT22;63176;52.678;13.250;2023-09-19T13:30:30;22.20;99.90
7290;DHT22;63176;52.678;13.250;2023-09-19T13:33:10;22.10;99.90
7290;DHT22;63176;52.678;13.250;2023-09-19T13:35:36;22.00;99.90
7290;DHT22;63176;52.678;13.250;2023-09-19T13:38:04;21.70;99.90
7290;DHT22;63176;52.678;13.250;2023-09-19T13:40:29;21.60;99.90
7290;DHT22;63176;52.678;13.250;2023-09-19T13:42:56;21.50;99.90
7290;DHT22;63176;52.678;13.250;2023-09-19T13:45:22;21.40;99.90
7290;DHT22;63176;52.678;13.250;2023-09-19T13:47:50;21.30;99.90
7290;DHT22;63176;52.678;13.250;2023-09-19T13:50:15;21.20;99.90
7290;DHT22;63176;52.678;13.250;2023-09-19T13:52:42;21.10;99.90
7290;DHT22;63176;52.678;13.250;2023-09-19T13:55:08;21.10;99.90
7290;DHT22;63176;52.678;13.250;2023-09-19T13:57:34;21.10;99.90
7290;DHT22;63176;52.678;13.250;2023-09-19T13:59:59;21.20;99.90
7290;DHT22;63176;52.678;13.250;2023-09-19T14:02:25;21.20;99.90
7290;DHT22;63176;52.678;13.250;2023-09-19T14:04:51;21.20;99.90
7290;DHT22;63176;52.678;13.250;2023-09-19T14:07:18;21.10;99.90
7290;DHT22;63176;52.678;13.250;2023-09-19T14:09:45;21.00;99.90
7290;DHT22;63176;52.678;13.250;2023-09-19T14:12:11;20.90;99.90
7290;DHT22;63176;52.678;13.250;2023-09-19T14:14:37;20.80;99.90
7290;DHT22;63176;52.678;13.250;2023-09-19T14:17:04;20.80;99.90
7290;DHT22;63176;52.678;13.250;2023-09-19T14:19:29;20.70;99.90
7290;DHT22;63176;52.678;13.250;2023-09-19T14:21:55;20.70;99.90
7290;DHT22;63176;52.678;13.250;2023-09-19T14:24:21;20.70;99.90
7290;DHT22;63176;52.678;13.250;2023-09-19T14:26:47;20.80;99.90
7290;DHT22;63176;52.678;13.250;2023-09-19T14:29:13;20.80;99.90
7290;DHT22;63176;52.678;13.250;2023-09-19T14:31:39;20.80;99.90
7290;DHT22;63176;52.678;13.250;2023-09-19T14:34:06;20.80;99.90
7290;DHT22;63176;52.678;13.250;2023-09-19T14:36:32;20.80;99.90
7290;DHT22;63176;52.678;13.250;2023-09-19T14:38:58;20.80;99.90
7290;DHT22;63176;52.678;13.250;2023-09-19T14:41:24;20.80;99.90
7290;DHT22;63176;52.678;13.250;2023-09-19T14:43:54;20.80;99.90
7290;DHT22;63176;52.678;13.250;2023-09-19T14:46:23;20.80;99.90
7290;DHT22;63176;52.678;13.250;2023-09-19T14:48:51;20.80;99.90
7290;DHT22;63176;52.678;13.250;2023-09-19T14:51:17;20.80;99.90
7290;DHT22;63176;52.678;13.250;2023-09-19T14:53:44;20.70;99.90
7290;DHT22;63176;52.678;13.250;2023-09-19T14:56:10;20.70;99.90
7290;DHT22;63176;52.678;13.250;2023-09-19T14:58:37;20.80;99.90
7290;DHT22;63176;52.678;13.250;2023-09-19T15:01:12;20.70;99.90
7290;DHT22;63176;52.678;13.250;2023-09-19T15:03:39;20.70;99.90
7290;DHT22;63176;52.678;13.250;2023-09-19T15:06:10;20.70;99.90
7290;DHT22;63176;52.678;13.250;2023-09-19T15:08:40;20.70;99.90
7290;DHT22;63176;52.678;13.250;2023-09-19T15:11:11;20.70;99.90
7290;DHT22;63176;52.678;13.250;2023-09-19T15:13:38;20.70;99.90
7290;DHT22;63176;52.678;13.250;2023-09-19T15:16:06;20.80;99.90
7290;DHT22;63176;52.678;13.250;2023-09-19T15:18:35;20.70;99.90
7290;DHT22;63176;52.678;13.250;2023-09-19T15:21:12;20.70;99.90
7290;DHT22;63176;52.678;13.250;2023-09-19T15:23:40;20.70;99.90
7290;DHT22;63176;52.678;13.250;2023-09-19T15:26:08;20.70;99.90
7290;DHT22;63176;52.678;13.250;2023-09-19T15:28:34;20.70;99.90
7290;DHT22;63176;52.678;13.250;2023-09-19T15:33:25;20.70;99.90
7290;DHT22;63176;52.678;13.250;2023-09-19T15:36:00;20.60;99.90
7290;DHT22;63176;52.678;13.250;2023-09-19T15:38:27;20.50;99.90
7290;DHT22;63176;52.678;13.250;2023-09-19T15:40:53;20.50;99.90
7290;DHT22;63176;52.678;13.250;2023-09-19T15:43:19;20.50;99.90
7290;DHT22;63176;52.678;13.250;2023-09-19T15:45:46;20.40;99.90
7290;DHT22;63176;52.678;13.250;2023-09-19T15:48:13;20.40;99.90
7290;DHT22;63176;52.678;13.250;2023-09-19T15:50:39;20.40;99.90
7290;DHT22;63176;52.678;13.250;2023-09-19T15:53:08;20.30;99.90
7290;DHT22;63176;52.678;13.250;2023-09-19T15:55:40;20.30;99.90
7290;DHT22;63176;52.678;13.250;2023-09-19T15:58:07;20.30;99.90
7290;DHT22;63176;52.678;13.250;2023-09-19T16:00:33;20.30;99.90
7290;DHT22;63176;52.678;13.250;2023-09-19T16:03:02;20.30;99.90
7290;DHT22;63176;52.678;13.250;2023-09-19T16:05:34;20.30;99.90
7290;DHT22;63176;52.678;13.250;2023-09-19T16:08:03;20.20;99.90
7290;DHT22;63176;52.678;13.250;2023-09-19T16:10:29;20.20;99.90
7290;DHT22;63176;52.678;13.250;2023-09-19T16:12:55;20.20;99.90
7290;DHT22;63176;52.678;13.250;2023-09-19T16:15:20;20.20;99.90
7290;DHT22;63176;52.678;13.250;2023-09-19T16:17:46;20.20;99.90
7290;DHT22;63176;52.678;13.250;2023-09-19T16:20:12;20.10;99.90
7290;DHT22;63176;52.678;13.250;2023-09-19T16:22:39;20.00;99.90
7290;DHT22;63176;52.678;13.250;2023-09-19T16:25:06;20.00;99.90